Time;durP1;ratioP1;P1;durP2;ratioP2;P2;SDS_P1;SDS_P2;PMS_P1;PMS_P2;Temp;Humidity;BMP_temperature;BMP_pressure;BME280_temperature;BME280_humidity;BME280_pressure;Samples;Min_cycle;Max_cycle;Signal;HPM_P1;HPM_P2
2023/02/07 06:19:54;;;;;;;;;11.00;10.25;;;;;1.59;100.00;103376.38;5893268;23;49878;-66
2023/02/07 06:22:20;;;;;;;;;15.75;14.00;;;;;1.77;100.00;103421.28;4936085;28;50031;-68
2023/02/07 06:24:45;;;;;;;;;20.50;16.50;;;;;0.37;100.00;103180.53;4937447;28;49830;-74
2023/02/07 06:27:11;;;;;;;;;25.50;21.00;;;;;0.76;100.00;103254.31;4948459;28;50074;-68
2023/02/07 06:29:36;;;;;;;;;18.25;15.50;;;;;1.81;100.00;103445.03;4933442;28;50615;-70
2023/02/07 06:32:01;;;;;;;;;20.00;18.25;;;;;0.96;100.00;103283.81;4938140;28;50012;-76
2023/02/07 06:34:27;;;;;;;;;19.25;19.25;;;;;-0.07;100.00;103104.69;4958629;28;49923;-67
2023/02/07 06:36:52;;;;;;;;;24.25;21.25;;;;;1.69;100.00;103415.34;4937130;28;49768;-67
2023/02/07 06:39:18;;;;;;;;;21.75;17.25;;;;;1.62;100.00;103412.91;4931587;28;50001;-70
2023/02/07 06:41:43;;;;;;;;;19.25;17.25;;;;;1.60;100.00;103417.03;4932357;28;49809;-69
2023/02/07 06:44:09;;;;;;;;;23.25;14.50;;;;;-0.56;100.00;103021.41;4932466;28;49847;-70
2023/02/07 06:46:34;;;;;;;;;22.75;18.00;;;;;0.55;100.00;103270.25;4933281;28;49873;-68
2023/02/07 06:49:00;;;;;;;;;9.75;9.00;;;;;0.77;100.00;103266.50;4934995;28;50612;-75
2023/02/07 06:51:25;;;;;;;;;18.00;15.75;;;;;1.36;100.00;103389.63;4934039;28;50090;-72
2023/02/07 06:53:50;;;;;;;;;19.25;13.75;;;;;-0.14;100.00;103126.38;4935672;28;50342;-71
2023/02/07 06:56:16;;;;;;;;;17.50;12.50;;;;;0.28;100.00;103196.03;4935631;28;49845;-70
2023/02/07 06:58:41;;;;;;;;;13.50;12.50;;;;;0.84;100.00;103343.91;4934749;28;50583;-75
2023/02/07 07:01:07;;;;;;;;;19.25;17.25;;;;;1.71;100.00;103517.41;4941170;28;49595;-77
2023/02/07 07:03:33;;;;;;;;;21.75;21.00;;;;;1.70;100.00;103489.69;4940072;28;49609;-75
2023/02/07 07:05:59;;;;;;;;;17.00;15.50;;;;;-0.42;100.00;103160.47;4953333;28;49848;-74
2023/02/07 07:08:26;;;;;;;;;17.75;14.00;;;;;1.66;100.00;103506.59;4953875;28;51289;-75
2023/02/07 07:10:52;;;;;;;;;22.75;17.75;;;;;-0.66;100.00;103104.69;4939491;28;50604;-80
2023/02/07 07:13:17;;;;;;;;;25.25;19.75;;;;;0.16;100.00;103269.72;4934181;28;49844;-79
2023/02/07 07:15:44;;;;;;;;;20.75;16.25;;;;;0.99;100.00;103392.78;4939980;28;50018;-75
2023/02/07 07:18:09;;;;;;;;;22.25;16.75;;;;;0.24;100.00;103271.41;4935373;28;50920;-73
2023/02/07 07:20:34;;;;;;;;;20.75;16.25;;;;;0.22;100.00;103244.53;4933579;28;49827;-75
2023/02/07 07:23:00;;;;;;;;;16.00;16.00;;;;;-0.19;100.00;103233.44;4935163;28;50188;-75
2023/02/07 07:25:25;;;;;;;;;12.75;11.00;;;;;1.12;100.00;103440.75;4935540;28;49849;-75
2023/02/07 07:27:53;;;;;;;;;31.50;21.50;;;;;0.39;100.00;103316.91;4934834;28;49765;-75
2023/02/07 07:30:20;;;;;;;;;21.25;15.25;;;;;-0.59;100.00;103131.25;4935348;28;49561;-74
2023/02/07 07:32:45;;;;;;;;;19.25;16.50;;;;;0.51;100.00;103302.66;4953781;28;49997;-75
2023/02/07 07:35:10;;;;;;;;;21.50;16.75;;;;;0.14;100.00;103229.91;4953268;28;49956;-75
2023/02/07 07:37:36;;;;;;;;;17.75;13.25;;;;;-0.53;100.00;103100.00;4941928;28;50147;-74
2023/02/07 07:40:01;;;;;;;;;21.50;20.00;;;;;0.98;100.00;103385.78;4953397;28;49834;-75
2023/02/07 07:42:27;;;;;;;;;20.00;18.50;;;;;1.22;100.00;103442.59;4953700;28;50279;-75
2023/02/07 07:44:52;;;;;;;;;18.50;11.00;;;;;0.48;100.00;103285.91;4953269;28;50196;-75
2023/02/07 07:47:18;;;;;;;;;17.75;17.75;;;;;1.31;100.00;103434.84;4953117;28;50635;-75
2023/02/07 07:49:44;;;;;;;;;22.25;14.00;;;;;0.81;100.00;103373.72;4953278;28;49834;-76
2023/02/07 07:52:09;;;;;;;;;25.25;17.50;;;;;1.61;100.00;103492.28;4953475;28;49886;-76
2023/02/07 07:54:35;;;;;;;;;20.00;15.25;;;;;-0.13;100.00;103186.69;4953132;28;49987;-75
2023/02/07 07:57:00;;;;;;;;;16.50;14.00;;;;;1.01;100.00;103379.25;4951644;28;49864;-65
2023/02/07 07:59:25;;;;;;;;;18.00;14.50;;;;;1.53;100.00;103472.44;4933079;28;50881;-66
2023/02/07 08:01:51;;;;;;;;;24.75;16.50;;;;;1.13;100.00;103388.22;4927804;28;49816;-72
2023/02/07 08:04:16;;;;;;;;;20.00;15.25;;;;;1.71;100.00;103499.28;4934577;28;50158;-65
2023/02/07 08:06:42;;;;;;;;;16.50;16.00;;;;;1.21;100.00;103419.16;4933269;28;49871;-66
2023/02/07 08:09:07;;;;;;;;;19.00;14.75;;;;;1.75;100.00;103498.84;4933259;28;49883;-67
2023/02/07 08:11:33;;;;;;;;;22.25;18.00;;;;;1.40;100.00;103446.13;4942503;28;49722;-67
2023/02/07 08:13:58;;;;;;;;;24.75;20.25;;;;;1.40;100.00;103409.88;4938831;28;49805;-66
2023/02/07 08:16:23;;;;;;;;;14.75;14.00;;;;;1.41;100.00;103416.88;4941473;28;51275;-68
2023/02/07 08:18:49;;;;;;;;;25.75;21.75;;;;;1.99;100.00;103513.31;4948077;28;49884;-66
2023/02/07 08:21:14;;;;;;;;;27.50;23.50;;;;;1.40;100.00;103396.94;4945454;28;49796;-67
2023/02/07 08:23:40;;;;;;;;;19.00;18.00;;;;;1.86;100.00;103469.72;4942394;28;50022;-70
2023/02/07 08:26:06;;;;;;;;;21.25;17.50;;;;;2.05;100.00;103513.91;4934539;28;51203;-67
2023/02/07 08:28:32;;;;;;;;;17.50;13.25;;;;;0.28;100.00;103177.94;4946449;28;49868;-66
2023/02/07 08:31:03;;;;;;;;;15.75;11.00;;;;;1.68;100.00;103434.25;4952871;28;49710;-67
2023/02/07 08:33:29;;;;;;;;;26.25;17.25;;;;;1.64;100.00;103458.00;4952848;28;50130;-65
2023/02/07 08:35:55;;;;;;;;;9.50;7.00;;;;;1.69;100.00;103443.84;4952623;28;50704;-66
2023/02/07 08:38:21;;;;;;;;;14.25;14.25;;;;;1.24;100.00;103347.00;4920108;28;49639;-67
2023/02/07 08:40:46;;;;;;;;;25.25;17.25;;;;;1.46;100.00;103405.31;4941659;28;49970;-66
2023/02/07 08:43:13;;;;;;;;;18.75;18.25;;;;;0.90;100.00;103348.81;4935189;28;49718;-64
2023/02/07 08:45:42;;;;;;;;;16.25;12.50;;;;;2.02;100.00;103498.06;4933701;28;50816;-64
2023/02/07 08:48:08;;;;;;;;;15.25;11.00;;;;;2.05;100.00;103494.88;4927090;28;49813;-65
2023/02/07 08:50:34;;;;;;;;;17.00;17.00;;;;;1.28;100.00;103365.56;4939642;28;49958;-67
2023/02/07 08:52:59;;;;;;;;;8.00;7.75;;;;;2.23;100.00;103517.41;4937911;28;50237;-66
2023/02/07 08:55:25;;;;;;;;;17.50;17.50;;;;;1.93;100.00;103450.50;4934412;28;50027;-67
2023/02/07 08:57:50;;;;;;;;;21.00;18.00;;;;;2.19;100.00;103511.00;4952406;28;50089;-66
2023/02/07 09:00:16;;;;;;;;;19.50;19.50;;;;;2.45;100.00;103515.22;4944400;28;49925;-67
2023/02/07 09:02:42;;;;;;;;;18.50;14.25;;;;;1.77;100.00;103378.19;4942793;28;49779;-66
2023/02/07 09:05:08;;;;;;;;;17.00;14.00;;;;;2.44;100.00;103521.19;4942635;28;50375;-67
2023/02/07 09:07:34;;;;;;;;;18.50;18.50;;;;;1.95;100.00;103379.97;4950808;28;49656;-66
2023/02/07 09:09:59;;;;;;;;;18.00;14.00;;;;;2.45;100.00;103473.75;4917387;28;50109;-69
2023/02/07 09:12:24;;;;;;;;;39.25;32.75;;;;;2.70;100.00;103511.66;4952282;28;49999;-67
2023/02/07 09:14:50;;;;;;;;;23.00;14.75;;;;;2.29;100.00;103440.22;4941163;28;50282;-66
2023/02/07 09:17:15;;;;;;;;;14.00;14.00;;;;;1.52;100.00;103285.91;4933445;28;49909;-68
2023/02/07 09:19:40;;;;;;;;;17.50;14.50;;;;;1.99;100.00;103371.72;4932482;28;49995;-65
2023/02/07 09:22:06;;;;;;;;;18.50;18.00;;;;;1.12;100.00;103238.03;4931897;28;49937;-65
2023/02/07 09:24:31;;;;;;;;;14.00;14.00;;;;;2.79;100.00;103503.81;4939629;28;50833;-65
2023/02/07 09:26:57;;;;;;;;;11.25;10.25;;;;;2.98;100.00;103512.59;4941513;28;49836;-66
2023/02/07 09:29:23;;;;;;;;;16.25;13.75;;;;;1.87;100.00;103326.50;4917559;28;49736;-65
2023/02/07 09:31:48;;;;;;;;;15.00;15.00;;;;;2.88;100.00;103534.16;4932736;28;49859;-66
2023/02/07 09:34:13;;;;;;;;;18.50;17.50;;;;;3.02;100.00;103535.50;4933014;28;50931;-65
2023/02/07 09:36:39;;;;;;;;;18.00;17.00;;;;;2.65;100.00;103458.41;4932746;28;49789;-66
2023/02/07 09:39:05;;;;;;;;;18.25;17.75;;;;;2.50;100.00;103416.34;4933321;28;49809;-67
2023/02/07 09:42:14;;;;;;;;;23.25;21.25;;;;;3.20;100.00;103532.81;4932498;28;49912;-67
2023/02/07 09:44:58;;;;;;;;;18.50;15.00;;;;;3.29;100.00;103531.09;4864187;28;51651;-66
2023/02/07 09:47:24;;;;;;;;;18.75;16.25;;;;;2.77;100.00;103441.41;4933365;28;49889;-71
2023/02/07 09:50:09;;;;;;;;;17.50;12.50;;;;;3.27;100.00;103514.44;4925717;28;49676;-68
2023/02/07 09:52:41;;;;;;;;;9.50;8.75;;;;;2.72;100.00;103429.72;4932655;28;49913;-66
2023/02/07 09:55:17;;;;;;;;;15.75;14.75;;;;;2.57;100.00;103400.63;4926083;28;50884;-65
2023/02/07 09:57:48;;;;;;;;;15.50;14.75;;;;;2.65;100.00;103427.28;4951419;28;49777;-67
2023/02/07 10:00:28;;;;;;;;;14.75;10.00;;;;;3.07;100.00;103474.53;4929654;28;49957;-65
2023/02/07 10:03:08;;;;;;;;;10.50;10.50;;;;;3.08;100.00;103462.47;4928010;28;49930;-67
2023/02/07 10:05:42;;;;;;;;;15.00;14.75;;;;;3.47;100.00;103556.16;4923984;28;51272;-67
2023/02/07 10:08:12;;;;;;;;;20.25;17.00;;;;;3.22;100.00;103474.16;4927338;28;49573;-67
2023/02/07 10:10:44;;;;;;;;;13.50;10.50;;;;;3.50;100.00;103538.28;4927925;28;49808;-65
2023/02/07 10:13:25;;;;;;;;;12.75;9.50;;;;;3.61;100.00;103537.59;4930463;28;49773;-68
2023/02/07 10:16:05;;;;;;;;;10.50;10.50;;;;;3.74;100.00;103545.75;4929889;28;51171;-68
2023/02/07 10:18:49;;;;;;;;;13.25;11.50;;;;;3.88;100.00;103546.13;4933149;28;49741;-67
2023/02/07 10:21:51;;;;;;;;;14.50;12.00;;;;;3.94;100.00;103545.00;4932507;28;50080;-65
2023/02/07 10:24:16;;;;;;;;;15.25;13.75;;;;;3.92;100.00;103530.94;4931034;28;49728;-65
2023/02/07 10:26:51;;;;;;;;;11.25;10.50;;;;;3.54;100.00;103492.72;4932210;28;49775;-66
2023/02/07 10:29:35;;;;;;;;;12.00;11.00;;;;;3.84;100.00;103541.41;4932657;28;49746;-65
2023/02/07 10:32:13;;;;;;;;;9.00;6.00;;;;;3.61;100.00;103500.31;4928356;28;49941;-67
2023/02/07 10:34:44;;;;;;;;;12.00;9.75;;;;;3.61;100.00;103497.72;4932588;28;50056;-65
2023/02/07 10:37:18;;;;;;;;;9.00;9.00;;;;;3.38;100.00;103433.28;4929690;28;52264;-66
2023/02/07 10:39:49;;;;;;;;;13.25;12.50;;;;;4.01;100.00;103537.00;4932014;28;49682;-65
2023/02/07 10:42:16;;;;;;;;;9.50;9.50;;;;;3.92;100.00;103511.84;4934168;28;49921;-65
2023/02/07 10:44:41;;;;;;;;;15.50;13.50;;;;;2.63;100.00;103260.25;4950414;28;49901;-70
2023/02/07 10:47:15;;;;;;;;;17.75;11.50;;;;;3.28;100.00;103358.84;4945413;28;50743;-67
2023/02/07 10:49:44;;;;;;;;;13.25;10.25;;;;;3.87;100.00;103456.88;4920634;28;49715;-70
2023/02/07 10:52:22;;;;;;;;;19.75;16.50;;;;;4.22;100.00;103526.72;4942051;28;49945;-65
2023/02/07 10:54:57;;;;;;;;;13.00;10.75;;;;;4.17;100.00;103534.09;4950665;28;49735;-66
2023/02/07 10:57:24;;;;;;;;;14.75;12.75;;;;;3.78;100.00;103442.13;4949650;28;51061;-66
2023/02/07 11:00:17;;;;;;;;;8.25;8.25;;;;;3.15;100.00;103381.81;4950957;28;49805;-65
2023/02/07 11:02:51;;;;;;;;;12.25;11.25;;;;;3.66;100.00;103455.78;4918976;28;49704;-69
2023/02/07 11:05:16;;;;;;;;;12.00;9.25;;;;;4.37;100.00;103532.41;4932086;28;49687;-67
2023/02/07 11:08:13;;;;;;;;;15.00;12.25;;;;;4.20;100.00;103469.38;4931948;28;51984;-66
2023/02/07 11:10:42;;;;;;;;;15.50;12.25;;;;;4.20;100.00;103451.19;4932081;28;49675;-66
2023/02/07 11:13:23;;;;;;;;;16.00;12.25;;;;;3.97;100.00;103404.03;4932240;28;49986;-68
2023/02/07 11:15:51;;;;;;;;;10.00;8.25;;;;;4.63;100.00;103530.41;4932276;28;50295;-71
2023/02/07 11:18:28;;;;;;;;;10.75;10.50;;;;;4.48;100.00;103500.44;4931965;28;49954;-65
2023/02/07 11:20:55;;;;;;;;;13.50;11.25;;;;;4.29;100.00;103443.28;4931653;28;49883;-65
2023/02/07 11:23:22;;;;;;;;;12.25;10.50;;;;;4.35;100.00;103425.63;4931758;28;49672;-66
2023/02/07 11:25:52;;;;;;;;;19.50;12.25;;;;;4.38;100.00;103417.19;4932227;28;50225;-67
2023/02/07 11:28:26;;;;;;;;;10.25;8.25;;;;;4.96;100.00;103515.97;4930538;28;51993;-64
2023/02/07 11:30:55;;;;;;;;;11.00;11.00;;;;;3.93;100.00;103375.91;4945812;28;50432;-66
2023/02/07 11:33:26;;;;;;;;;15.50;13.75;;;;;4.17;100.00;103385.91;4936920;28;50082;-72
2023/02/07 11:36:06;;;;;;;;;14.25;14.25;;;;;4.76;100.00;103509.00;4940096;28;50090;-68
2023/02/07 11:38:38;;;;;;;;;17.00;15.00;;;;;4.77;100.00;103518.63;4951472;28;50775;-65
2023/02/07 11:41:06;;;;;;;;;18.50;14.00;;;;;4.87;100.00;103523.88;4965696;28;49479;-68
2023/02/07 11:43:33;;;;;;;;;15.00;12.00;;;;;4.81;100.00;103471.25;4954175;28;49316;-71
2023/02/07 11:46:08;;;;;;;;;15.25;14.00;;;;;4.21;100.00;103358.47;4952841;28;49443;-75
2023/02/07 11:48:38;;;;;;;;;8.75;7.50;;;;;4.75;100.00;103482.06;4951934;28;50520;-69
2023/02/07 11:51:07;;;;;;;;;14.25;12.00;;;;;4.77;100.00;103469.19;4957050;28;49846;-69
2023/02/07 11:53:47;;;;;;;;;14.00;6.00;;;;;4.97;100.00;103491.75;4954483;28;49898;-69
2023/02/07 11:56:37;;;;;;;;;13.50;12.25;;;;;4.78;100.00;103461.50;4942354;28;49760;-67
2023/02/07 11:59:10;;;;;;;;;12.25;9.00;;;;;4.68;100.00;103437.16;4951571;28;49498;-72
2023/02/07 12:01:36;;;;;;;;;16.75;14.25;;;;;4.88;100.00;103464.13;4945583;28;49534;-71
2023/02/07 12:04:37;;;;;;;;;9.25;8.50;;;;;4.99;100.00;103487.56;4932575;28;49815;-70
2023/02/07 12:07:16;;;;;;;;;13.75;12.50;;;;;4.66;100.00;103413.63;4881647;29;49783;-82
2023/02/07 12:09:46;;;;;;;;;20.00;16.25;;;;;5.15;100.00;103495.94;4931414;28;52512;-71
2023/02/07 12:12:53;;;;;;;;;15.50;15.50;;;;;5.19;100.00;103485.00;4940763;28;49704;-83
2023/02/07 12:15:27;;;;;;;;;13.50;13.00;;;;;3.88;100.00;103294.06;4934087;28;49866;-75
2023/02/07 12:18:13;;;;;;;;;20.75;16.25;;;;;5.28;100.00;103458.81;4953914;28;50065;-66
2023/02/07 12:21:06;;;;;;;;;13.75;13.75;;;;;5.54;100.00;103506.25;4944869;28;50092;-68
2023/02/07 12:23:48;;;;;;;;;12.50;12.50;;;;;5.39;100.00;103432.00;4934313;28;49845;-62
2023/02/07 12:26:25;;;;;;;;;14.75;13.25;;;;;5.70;100.00;103474.59;4946775;28;49682;-65
2023/02/07 12:29:19;;;;;;;;;10.75;10.75;;;;;5.44;99.50;103473.28;4952717;28;50014;-74
2023/02/07 12:31:56;;;;;;;;;16.50;13.00;;;;;5.52;100.00;103471.34;4952543;28;49880;-69
2023/02/07 12:34:30;;;;;;;;;12.50;10.00;;;;;5.62;100.00;103479.16;4927664;28;49747;-66
2023/02/07 12:37:12;;;;;;;;;10.00;8.75;;;;;5.04;100.00;103351.81;4934338;28;49981;-66
2023/02/07 12:40:03;;;;;;;;;17.00;17.00;;;;;5.86;100.00;103466.31;4945759;28;49713;-67
2023/02/07 12:42:46;;;;;;;;;18.00;14.00;;;;;4.95;99.94;103304.19;4937881;28;49961;-68
2023/02/07 12:45:17;;;;;;;;;17.75;13.00;;;;;5.64;99.80;103416.72;4940977;28;49748;-66
2023/02/07 12:47:57;;;;;;;;;15.75;13.75;;;;;5.92;100.00;103475.59;4947567;28;49837;-66
2023/02/07 12:50:30;;;;;;;;;16.25;15.00;;;;;5.91;100.00;103468.56;4933131;28;50109;-66
2023/02/07 12:53:24;;;;;;;;;16.00;14.00;;;;;5.64;99.87;103425.44;4931528;28;49810;-67
2023/02/07 12:55:57;;;;;;;;;20.50;18.50;;;;;5.37;100.00;103390.19;4933826;28;49635;-66
2023/02/07 12:58:50;;;;;;;;;16.00;14.00;;;;;6.02;98.42;103459.94;4930259;28;49746;-66
2023/02/07 13:01:35;;;;;;;;;23.50;16.25;;;;;6.06;98.46;103466.31;4925674;28;49747;-66
2023/02/07 13:04:10;;;;;;;;;15.50;12.25;;;;;6.20;97.55;103476.19;4920640;28;50050;-67
2023/02/07 13:07:13;;;;;;;;;13.00;12.25;;;;;6.24;96.95;103457.38;4922999;28;49743;-66
2023/02/07 13:09:46;;;;;;;;;19.00;14.25;;;;;6.15;96.44;103453.09;4923210;28;49748;-65
2023/02/07 13:12:29;;;;;;;;;14.00;13.00;;;;;5.32;95.07;103328.09;4944917;28;49786;-70
2023/02/07 13:15:20;;;;;;;;;17.75;15.50;;;;;5.79;96.00;103394.53;4928391;28;50883;-67
2023/02/07 13:17:52;;;;;;;;;15.00;15.00;;;;;6.25;96.77;103461.78;4933461;28;49710;-66
2023/02/07 13:20:40;;;;;;;;;17.00;15.00;;;;;5.73;94.21;103360.16;4928396;28;49937;-65
2023/02/07 13:23:15;;;;;;;;;15.00;12.75;;;;;6.10;95.24;103426.66;4931763;28;50048;-65
2023/02/07 13:25:43;;;;;;;;;20.25;18.25;;;;;6.27;94.03;103461.91;4933286;28;51018;-66
2023/02/07 13:28:29;;;;;;;;;12.00;10.75;;;;;5.98;93.94;103416.16;4940090;28;49683;-66
2023/02/07 13:30:56;;;;;;;;;15.25;12.75;;;;;5.86;95.95;103411.56;4951967;28;49892;-67
2023/02/07 13:33:39;;;;;;;;;13.75;13.75;;;;;6.15;96.00;103442.66;4940401;28;49680;-68
2023/02/07 13:36:16;;;;;;;;;17.00;15.00;;;;;6.29;96.72;103460.38;4942643;28;50029;-66
2023/02/07 13:39:08;;;;;;;;;13.25;13.25;;;;;6.19;97.56;103419.59;4951889;28;49812;-68
2023/02/07 13:41:52;;;;;;;;;10.25;10.25;;;;;6.14;96.83;103409.56;4951788;28;49898;-67
2023/02/07 13:44:35;;;;;;;;;14.00;13.00;;;;;6.62;97.32;103453.41;4952026;28;49909;-66
2023/02/07 13:47:26;;;;;;;;;14.75;14.75;;;;;6.73;96.97;103450.84;4951686;28;51241;-66
2023/02/07 13:50:15;;;;;;;;;15.25;12.75;;;;;6.10;93.25;103352.72;4950314;28;49949;-68
2023/02/07 13:52:54;;;;;;;;;17.00;14.25;;;;;6.59;93.43;103454.09;4931458;28;49739;-67
2023/02/07 13:55:25;;;;;;;;;13.25;13.00;;;;;6.63;94.63;103447.41;4951789;28;49680;-66
2023/02/07 14:01:08;;;;;;;;;14.50;13.50;;;;;6.78;93.52;103444.31;4932585;28;49859;-67
2023/02/07 14:03:34;;;;;;;;;14.25;12.75;;;;;6.73;93.60;103432.59;4930251;28;49892;-67
2023/02/07 14:06:24;;;;;;;;;23.50;16.75;;;;;6.76;92.39;103437.16;4932539;28;49878;-67
2023/02/07 14:09:04;;;;;;;;;20.25;17.00;;;;;6.66;92.75;103434.59;4936224;28;49675;-67
2023/02/07 14:11:42;;;;;;;;;14.00;13.75;;;;;6.57;94.45;103403.47;4951263;28;49745;-67
2023/02/07 14:14:25;;;;;;;;;17.50;17.00;;;;;6.71;94.53;103428.03;4951073;28;49847;-69
2023/02/07 14:16:57;;;;;;;;;15.25;15.00;;;;;6.67;93.49;103412.94;4951415;28;49911;-68
2023/02/07 14:19:47;;;;;;;;;21.25;20.25;;;;;6.66;93.29;103414.66;4932571;28;49792;-67
2023/02/07 14:22:50;;;;;;;;;18.50;15.50;;;;;6.59;92.59;103420.16;4950905;28;50008;-68
2023/02/07 14:25:21;;;;;;;;;14.25;13.00;;;;;6.71;93.52;103431.56;4949513;28;49935;-67
2023/02/07 14:27:50;;;;;;;;;17.50;17.00;;;;;6.84;93.54;103423.88;4925578;28;49970;-68
2023/02/07 14:30:36;;;;;;;;;10.50;10.00;;;;;6.84;90.42;103422.97;4930690;28;50938;-68
2023/02/07 14:33:21;;;;;;;;;9.00;7.00;;;;;6.84;91.40;103436.94;4946342;28;49691;-67
2023/02/07 14:36:11;;;;;;;;;18.25;15.25;;;;;6.87;91.89;103437.22;4950691;28;50295;-67
2023/02/07 14:38:58;;;;;;;;;19.00;17.75;;;;;6.92;91.30;103436.63;4932420;28;50029;-66
2023/02/07 14:41:30;;;;;;;;;18.50;16.00;;;;;6.87;91.31;103404.97;4947541;28;50664;-67
2023/02/07 14:43:58;;;;;;;;;16.75;14.50;;;;;6.43;90.32;103337.13;4950890;28;49781;-66
2023/02/07 14:46:35;;;;;;;;;25.25;19.75;;;;;6.91;91.39;103427.00;4950923;28;49742;-68
2023/02/07 14:49:06;;;;;;;;;9.75;9.00;;;;;6.71;91.78;103397.63;4951120;28;49811;-66
2023/02/07 14:51:43;;;;;;;;;14.50;12.25;;;;;6.40;91.68;103347.34;4949892;28;49873;-66
2023/02/07 14:54:20;;;;;;;;;21.75;20.25;;;;;6.83;90.38;103429.91;4925381;28;49715;-66
2023/02/07 14:56:57;;;;;;;;;23.25;21.25;;;;;6.79;91.73;103420.03;4943451;28;50157;-67
2023/02/07 14:59:32;;;;;;;;;17.25;15.25;;;;;6.75;92.82;103399.66;4932509;28;49748;-67
2023/02/07 15:02:38;;;;;;;;;17.75;17.25;;;;;6.94;92.46;103430.75;4931973;28;49727;-66
2023/02/07 15:05:12;;;;;;;;;14.50;14.50;;;;;6.89;90.38;103437.31;4940398;28;49712;-67
2023/02/07 15:07:39;;;;;;;;;32.00;26.50;;;;;6.82;91.58;103428.09;4929408;28;49880;-66
2023/02/07 15:10:23;;;;;;;;;21.75;17.50;;;;;6.86;91.81;103434.47;4935576;28;50535;-67
2023/02/07 15:12:51;;;;;;;;;13.50;13.50;;;;;6.84;92.21;103436.03;4945629;28;49952;-67
2023/02/07 15:15:28;;;;;;;;;21.50;19.00;;;;;6.72;91.77;103411.59;4943610;28;49659;-68
2023/02/07 15:17:57;;;;;;;;;23.50;20.75;;;;;6.84;92.25;103433.44;4953972;28;49704;-69
2023/02/07 15:20:29;;;;;;;;;47.75;41.50;;;;;6.47;92.20;103374.84;4941369;28;49872;-67
2023/02/07 15:22:58;;;;;;;;;81.67;63.33;;;;;6.71;92.98;103408.06;4941478;28;51053;-67
2023/02/07 15:25:26;;;;;;;;;19.50;17.00;;;;;6.73;92.22;103414.31;4938683;28;49861;-68
2023/02/07 15:28:23;;;;;;;;;64.75;52.25;;;;;6.82;92.94;103440.22;4933756;28;49686;-66
2023/02/07 15:30:59;;;;;;;;;19.75;16.25;;;;;6.43;91.83;103378.88;4935396;28;49844;-67
2023/02/07 15:33:35;;;;;;;;;208.50;168.50;;;;;6.62;91.89;103411.66;4943016;28;50874;-66
2023/02/07 15:36:23;;;;;;;;;65.50;51.75;;;;;6.71;92.82;103421.13;4923909;28;50034;-67
2023/02/07 15:38:49;;;;;;;;;19.50;16.25;;;;;6.55;91.88;103389.38;4923954;28;49664;-67
2023/02/07 15:41:14;;;;;;;;;19.25;16.25;;;;;6.68;93.13;103426.13;4935310;28;49687;-67
2023/02/07 15:43:52;;;;;;;;;17.00;16.50;;;;;6.78;93.90;103438.19;4953324;28;50765;-69
2023/02/07 15:46:18;;;;;;;;;29.50;20.75;;;;;6.56;95.09;103397.34;4931651;28;50057;-67
2023/02/07 15:48:53;;;;;;;;;21.50;20.50;;;;;6.53;95.22;103396.19;4935088;28;49718;-67
2023/02/07 15:51:23;;;;;;;;;19.50;18.00;;;;;6.59;95.67;103413.25;4927066;28;50230;-66
2023/02/07 15:53:53;;;;;;;;;25.00;22.00;;;;;6.63;94.25;103431.75;4926019;28;50539;-67
2023/02/07 15:56:18;;;;;;;;;24.00;22.00;;;;;6.53;95.31;103420.56;4934249;28;49821;-66
2023/02/07 15:58:44;;;;;;;;;19.00;17.25;;;;;6.51;95.30;103416.94;4933983;28;49698;-66
2023/02/07 16:01:32;;;;;;;;;20.75;19.00;;;;;6.32;96.53;103392.78;4934841;28;49640;-65
2023/02/07 16:03:58;;;;;;;;;27.25;21.75;;;;;6.35;97.22;103407.75;4922532;28;50874;-66
2023/02/07 16:06:29;;;;;;;;;79.00;63.00;;;;;6.54;98.52;103437.13;4952799;28;49714;-67
2023/02/07 16:09:00;;;;;;;;;40.25;32.50;;;;;6.45;97.74;103426.88;4953267;28;49683;-67
2023/02/07 16:11:25;;;;;;;;;51.25;44.00;;;;;6.55;97.46;103446.78;4929203;28;49738;-66
2023/02/07 16:14:03;;;;;;;;;16.50;16.25;;;;;6.52;98.17;103452.69;4934532;28;49948;-66
2023/02/07 16:16:32;;;;;;;;;28.50;26.50;;;;;6.35;98.37;103421.72;4929635;28;49772;-66
2023/02/07 16:19:04;;;;;;;;;23.75;18.25;;;;;6.46;98.27;103452.19;4928163;28;49751;-67
2023/02/07 16:21:29;;;;;;;;;19.00;15.50;;;;;6.37;98.36;103430.59;4934172;28;49571;-66
2023/02/07 16:24:05;;;;;;;;;23.75;20.25;;;;;6.47;98.70;103450.50;4934370;28;50350;-68
2023/02/07 16:26:31;;;;;;;;;30.00;25.25;;;;;6.21;97.85;103407.56;4934442;28;50075;-67
2023/02/07 16:28:57;;;;;;;;;19.75;17.75;;;;;6.31;97.40;103430.09;4927091;28;49730;-66
2023/02/07 16:31:22;;;;;;;;;19.75;15.25;;;;;6.35;97.35;103437.38;4941648;28;50068;-67
2023/02/07 16:33:48;;;;;;;;;17.75;17.25;;;;;6.25;97.92;103440.94;4931261;28;50240;-67
2023/02/07 16:36:15;;;;;;;;;21.50;16.00;;;;;6.33;97.88;103467.66;4933686;28;50000;-67
2023/02/07 16:38:41;;;;;;;;;24.25;20.75;;;;;6.23;98.61;103445.13;4933076;28;49702;-67
2023/02/07 16:41:20;;;;;;;;;22.25;20.25;;;;;6.09;98.30;103434.38;4929292;28;49794;-66
2023/02/07 16:43:46;;;;;;;;;19.50;15.50;;;;;6.17;98.64;103451.53;4935725;28;51212;-66
2023/02/07 16:46:11;;;;;;;;;14.50;14.50;;;;;6.16;99.10;103454.94;4952322;28;49770;-67
2023/02/07 16:48:36;;;;;;;;;25.25;19.50;;;;;6.06;99.33;103463.69;4951047;28;49695;-67
2023/02/07 16:51:02;;;;;;;;;21.50;17.75;;;;;5.97;99.54;103452.50;4951486;28;50385;-66
2023/02/07 16:53:27;;;;;;;;;24.50;20.00;;;;;5.92;99.38;103439.09;4952059;28;50808;-67
2023/02/07 16:55:55;;;;;;;;;19.25;17.25;;;;;5.98;100.00;103446.50;4951123;28;49917;-66
2023/02/07 16:58:26;;;;;;;;;20.00;17.75;;;;;6.10;100.00;103471.00;4952530;28;49742;-68
2023/02/07 17:00:52;;;;;;;;;31.25;26.00;;;;;6.07;100.00;103491.59;4952652;28;49994;-66
2023/02/07 17:03:17;;;;;;;;;22.00;19.50;;;;;5.85;100.00;103459.28;4952210;28;50716;-72
2023/02/07 17:05:43;;;;;;;;;19.25;18.75;;;;;6.08;100.00;103489.91;4952041;28;49794;-66
2023/02/07 17:08:19;;;;;;;;;20.75;20.75;;;;;5.56;100.00;103405.66;4952012;28;50109;-67
2023/02/07 17:11:05;;;;;;;;;19.75;19.25;;;;;5.92;100.00;103478.22;4952878;28;49946;-68
2023/02/07 17:13:31;;;;;;;;;20.25;18.00;;;;;5.96;100.00;103495.94;4951865;28;51790;-69
2023/02/07 17:15:57;;;;;;;;;21.50;19.25;;;;;5.60;100.00;103440.72;4952093;28;49963;-69
2023/02/07 17:18:23;;;;;;;;;21.50;20.25;;;;;5.85;100.00;103490.56;4952179;28;49757;-69
2023/02/07 17:20:48;;;;;;;;;19.50;18.25;;;;;5.47;100.00;103424.03;4951640;28;49781;-66
2023/02/07 17:23:14;;;;;;;;;24.00;22.50;;;;;5.60;100.00;103449.44;4950577;28;51341;-71
2023/02/07 17:25:41;;;;;;;;;32.75;23.75;;;;;5.52;100.00;103437.47;4951634;28;49663;-71
2023/02/07 17:28:13;;;;;;;;;28.00;21.25;;;;;5.71;100.00;103476.41;4952228;28;50192;-71
2023/02/07 17:30:39;;;;;;;;;25.50;20.00;;;;;5.78;100.00;103504.78;4951139;28;49829;-72
2023/02/07 17:33:06;;;;;;;;;20.25;19.00;;;;;5.72;100.00;103506.91;4950080;28;50022;-69
2023/02/07 17:35:32;;;;;;;;;24.25;17.75;;;;;5.60;100.00;103485.03;4951634;28;50097;-70
2023/02/07 17:37:59;;;;;;;;;21.75;19.25;;;;;5.83;100.00;103518.22;4951859;28;50237;-71
2023/02/07 17:40:27;;;;;;;;;22.00;21.00;;;;;5.82;100.00;103522.53;4951986;28;49927;-70
2023/02/07 17:42:52;;;;;;;;;25.75;23.00;;;;;5.77;100.00;103522.91;4951672;28;49984;-70
2023/02/07 17:45:19;;;;;;;;;28.50;23.50;;;;;5.77;100.00;103525.50;4951846;28;49675;-73
2023/02/07 17:47:44;;;;;;;;;26.50;25.50;;;;;5.41;100.00;103470.44;4944079;28;49695;-72
2023/02/07 17:50:18;;;;;;;;;30.25;24.75;;;;;5.60;100.00;103504.16;4933087;28;49600;-70
2023/02/07 17:52:44;;;;;;;;;30.25;26.75;;;;;5.64;100.00;103521.88;4932890;28;49964;-70
2023/02/07 17:55:10;;;;;;;;;18.50;17.50;;;;;5.46;100.00;103495.16;4931561;28;49727;-74
2023/02/07 17:57:35;;;;;;;;;26.25;24.50;;;;;5.35;100.00;103482.03;4939036;28;49766;-69